createdAt,value
2022-11-16T00:00:01.486Z,6.30
2022-11-16T00:02:53.128Z,8.32
2022-11-16T00:05:42.973Z,7.90
2022-11-16T00:08:30.014Z,8.25
2022-11-16T00:11:19.187Z,7.32
2022-11-16T00:14:05.958Z,8.75
2022-11-16T00:16:51.954Z,18.15
2022-11-16T00:19:38.144Z,8.63
2022-11-16T00:22:23.698Z,9.57
2022-11-16T00:25:10.072Z,21.50
2022-11-16T00:27:56.158Z,19.27
2022-11-16T00:30:42.089Z,14.60
2022-11-16T00:33:39.735Z,21.13
2022-11-16T00:36:25.908Z,10.73
2022-11-16T00:39:12.966Z,11.73
2022-11-16T00:41:59.112Z,12.55
2022-11-16T00:44:45.263Z,10.30
2022-11-16T00:47:31.170Z,22.35
2022-11-16T00:50:17.645Z,20.90
2022-11-16T00:53:04.696Z,28.35
2022-11-16T00:55:51.109Z,45.90
2022-11-16T00:58:38.852Z,11.95
2022-11-16T01:01:27.627Z,9.68
2022-11-16T01:04:32.058Z,7.72
2022-11-16T01:07:18.537Z,7.78
2022-11-16T01:10:07.914Z,9.07
2022-11-16T01:12:54.521Z,20.13
2022-11-16T01:15:46.922Z,5.40
2022-11-16T01:18:33.341Z,21.88
2022-11-16T01:21:19.816Z,7.05
2022-11-16T01:24:25.130Z,6.88
2022-11-16T01:27:10.970Z,7.82
2022-11-16T01:30:01.305Z,27.13
2022-11-16T01:32:47.055Z,7.90
2022-11-16T01:35:32.991Z,8.35
2022-11-16T01:38:18.938Z,9.93
2022-11-16T01:41:25.171Z,11.48
2022-11-16T01:44:32.687Z,30.60
2022-11-16T01:47:26.227Z,12.25
2022-11-16T01:50:15.820Z,14.60
2022-11-16T01:53:05.517Z,12.27
2022-11-16T01:55:58.652Z,10.68
2022-11-16T01:59:03.458Z,7.22
2022-11-16T02:01:49.396Z,9.50
2022-11-16T02:04:36.694Z,7.25
2022-11-16T02:07:59.256Z,8.25
2022-11-16T02:10:48.509Z,7.45
2022-11-16T02:13:37.709Z,7.22
2022-11-16T02:16:42.241Z,6.85
2022-11-16T02:19:47.370Z,5.28
2022-11-16T02:22:53.809Z,8.38
2022-11-16T02:25:42.794Z,5.75
2022-11-16T02:28:43.731Z,8.35
2022-11-16T02:31:33.669Z,26.45
2022-11-16T02:34:21.344Z,11.88
2022-11-16T02:37:08.008Z,5.15
2022-11-16T02:39:56.665Z,5.93
2022-11-16T02:42:54.013Z,4.13
2022-11-16T02:45:43.361Z,17.15
2022-11-16T02:48:33.939Z,4.78
2022-11-16T02:51:21.007Z,4.55
2022-11-16T02:54:08.594Z,4.80
2022-11-16T02:57:16.884Z,6.18
2022-11-16T03:00:06.728Z,15.65
2022-11-16T03:03:02.494Z,4.00
2022-11-16T03:05:56.311Z,3.97
2022-11-16T03:08:47.436Z,4.10
2022-11-16T03:11:53.905Z,3.97
2022-11-16T03:14:39.982Z,3.70
2022-11-16T03:17:28.813Z,4.22
2022-11-16T03:20:22.583Z,4.07
2022-11-16T03:23:10.341Z,3.95
2022-11-16T03:25:58.312Z,15.60
2022-11-16T03:28:55.216Z,4.72
2022-11-16T03:31:47.734Z,4.80
2022-11-16T03:34:37.597Z,5.25
2022-11-16T03:37:24.381Z,10.88
2022-11-16T03:40:11.468Z,3.47
2022-11-16T03:42:59.399Z,6.35
2022-11-16T03:45:45.886Z,3.95
2022-11-16T03:48:36.214Z,5.07
2022-11-16T03:51:26.749Z,11.98
2022-11-16T03:54:13.631Z,3.85
2022-11-16T03:56:59.867Z,7.35
2022-11-16T03:59:46.034Z,4.43
2022-11-16T04:02:31.921Z,3.60
2022-11-16T04:05:37.097Z,2.67
2022-11-16T04:08:42.121Z,3.90
2022-11-16T04:11:47.470Z,2.97
2022-11-16T04:14:51.949Z,3.40
2022-11-16T04:17:56.489Z,4.70
2022-11-16T04:21:02.430Z,5.22
2022-11-16T04:24:07.736Z,4.25
2022-11-16T04:27:14.563Z,4.80
2022-11-16T04:30:01.017Z,11.68
2022-11-16T04:33:07.361Z,2.08
2022-11-16T04:36:15.404Z,3.90
2022-11-16T04:39:05.748Z,5.10
2022-11-16T04:42:22.338Z,4.53
2022-11-16T04:45:29.792Z,2.72
2022-11-16T04:48:18.236Z,3.15
2022-11-16T04:51:04.269Z,4.35
2022-11-16T04:53:50.875Z,4.85
2022-11-16T04:56:41.143Z,5.78
2022-11-16T04:59:27.264Z,5.57
2022-11-16T05:02:15.239Z,8.13
2022-11-16T05:05:16.834Z,5.75
2022-11-16T05:08:04.916Z,6.00
2022-11-16T05:10:52.601Z,4.85
2022-11-16T05:13:39.055Z,3.65
2022-11-16T05:16:26.282Z,3.10
2022-11-16T05:19:30.929Z,3.30
2022-11-16T05:22:19.878Z,2.90
2022-11-16T05:25:08.270Z,2.80
2022-11-16T05:27:54.645Z,4.15
2022-11-16T05:30:40.667Z,2.63
2022-11-16T05:33:27.222Z,3.30
2022-11-16T05:36:13.309Z,3.03
2022-11-16T05:38:59.205Z,3.53
2022-11-16T05:41:48.704Z,5.53
2022-11-16T05:44:35.289Z,3.97
2022-11-16T05:47:21.231Z,2.28
2022-11-16T05:50:07.620Z,4.72
2022-11-16T05:52:58.625Z,6.60
2022-11-16T05:55:44.672Z,4.50
2022-11-16T05:58:30.254Z,6.35
2022-11-16T06:01:18.101Z,5.25
2022-11-16T06:04:04.389Z,6.35
2022-11-16T06:06:52.073Z,4.13
2022-11-16T06:09:56.659Z,4.30
2022-11-16T06:12:44.283Z,3.45
2022-11-16T06:15:30.507Z,5.22
2022-11-16T06:18:16.967Z,5.30
2022-11-16T06:21:03.327Z,13.68
2022-11-16T06:23:50.427Z,14.48
2022-11-16T06:26:37.156Z,7.18
2022-11-16T06:29:23.480Z,4.75
2022-11-16T06:32:11.434Z,5.25
2022-11-16T06:34:57.938Z,7.35
2022-11-16T06:37:44.137Z,10.50
2022-11-16T06:40:30.268Z,19.63
2022-11-16T06:43:34.902Z,7.78
2022-11-16T06:46:24.613Z,11.30
2022-11-16T06:49:12.844Z,25.05
2022-11-16T06:51:58.819Z,29.83
2022-11-16T06:54:45.621Z,15.38
2022-11-16T06:57:33.520Z,9.52
2022-11-16T07:00:19.517Z,15.27
2022-11-16T07:03:06.432Z,12.40
2022-11-16T07:05:52.594Z,8.38
2022-11-16T07:08:40.323Z,8.48
2022-11-16T07:11:27.498Z,12.45
2022-11-16T07:14:13.670Z,12.35
2022-11-16T07:17:06.536Z,9.30
2022-11-16T07:19:54.872Z,16.20
2022-11-16T07:22:41.694Z,22.35
2022-11-16T07:25:32.298Z,52.28
2022-11-16T07:28:18.439Z,39.08
2022-11-16T07:31:06.684Z,47.85
2022-11-16T07:33:53.341Z,46.50
2022-11-16T07:37:02.010Z,46.97
2022-11-16T07:39:48.060Z,51.50
2022-11-16T07:42:34.848Z,50.20
2022-11-16T07:45:41.235Z,49.60
2022-11-16T07:48:29.474Z,52.78
2022-11-16T07:51:41.925Z,51.20
2022-11-16T07:54:43.778Z,24.20
2022-11-16T07:57:30.054Z,41.15
2022-11-16T08:00:20.809Z,43.10
2022-11-16T08:03:18.187Z,24.67
2022-11-16T08:06:11.198Z,43.97
2022-11-16T08:08:58.796Z,40.17
2022-11-16T08:11:48.397Z,21.98
2022-11-16T08:14:34.487Z,55.30
2022-11-16T08:17:23.174Z,53.47
2022-11-16T08:20:09.897Z,48.75
2022-11-16T08:22:59.887Z,22.20
2022-11-16T08:25:46.392Z,62.90
2022-11-16T08:28:33.026Z,25.80
2022-11-16T08:31:24.311Z,52.35
2022-11-16T08:34:13.687Z,67.57
2022-11-16T08:37:03.947Z,50.65
2022-11-16T08:40:05.099Z,64.75
2022-11-16T08:42:59.128Z,62.75
2022-11-16T08:45:49.174Z,58.67
2022-11-16T08:48:35.915Z,51.80
2022-11-16T08:54:27.973Z,51.83
2022-11-16T08:57:13.994Z,60.50
2022-11-16T09:00:01.629Z,28.08
2022-11-16T09:02:51.321Z,61.70
2022-11-16T09:05:55.810Z,66.43
2022-11-16T09:08:42.980Z,57.25
2022-11-16T09:11:29.334Z,33.47
2022-11-16T09:17:23.169Z,56.25
2022-11-16T09:20:09.654Z,61.13
2022-11-16T09:23:45.857Z,55.35
2022-11-16T09:26:32.176Z,26.38
2022-11-16T09:29:18.538Z,54.65
2022-11-16T09:32:09.695Z,49.97
2022-11-16T09:34:55.525Z,36.20
2022-11-16T09:37:42.152Z,45.05
2022-11-16T09:44:18.383Z,41.97
2022-11-16T09:47:04.684Z,39.60
2022-11-16T09:49:59.785Z,25.42
2022-11-16T09:52:51.089Z,24.08
2022-11-16T09:55:38.743Z,13.68
2022-11-16T09:58:44.810Z,20.67
2022-11-16T10:01:40.358Z,17.58
2022-11-16T10:04:45.377Z,18.55
2022-11-16T10:07:57.648Z,9.77
2022-11-16T10:10:51.304Z,12.90
2022-11-16T10:13:37.673Z,16.90
2022-11-16T10:16:23.813Z,14.32
2022-11-16T10:19:31.234Z,14.73
2022-11-16T10:22:45.880Z,15.50
2022-11-16T10:25:53.100Z,16.67
2022-11-16T10:28:42.263Z,16.30
2022-11-16T10:31:46.407Z,18.80
2022-11-16T10:34:44.294Z,18.50
2022-11-16T10:37:36.643Z,18.75
2022-11-16T10:40:23.487Z,16.20
2022-11-16T10:43:23.407Z,17.98
2022-11-16T10:46:16.760Z,18.17
2022-11-16T10:49:15.206Z,14.75
2022-11-16T10:52:01.474Z,13.25
2022-11-16T10:54:47.589Z,14.65
2022-11-16T10:57:52.589Z,14.43
2022-11-16T11:00:49.026Z,18.58
2022-11-16T11:03:35.807Z,20.05
2022-11-16T11:06:26.674Z,19.48
2022-11-16T11:09:21.489Z,16.15
2022-11-16T11:12:29.635Z,17.13
2022-11-16T11:15:26.259Z,13.40
2022-11-16T11:18:15.515Z,11.50
2022-11-16T11:21:07.140Z,9.57
2022-11-16T11:24:16.076Z,10.50
2022-11-16T11:27:04.059Z,14.52
2022-11-16T11:29:54.877Z,14.80
2022-11-16T11:32:41.157Z,13.80
2022-11-16T11:35:31.468Z,13.52
2022-11-16T11:38:20.228Z,15.38
2022-11-16T11:41:05.942Z,15.55
2022-11-16T11:44:03.412Z,19.85
2022-11-16T11:50:06.674Z,13.20
2022-11-16T11:54:46.145Z,13.90
2022-11-16T11:57:35.681Z,16.73
2022-11-16T12:01:11.046Z,14.75
2022-11-16T12:04:20.113Z,12.10
2022-11-16T12:07:06.269Z,15.40
2022-11-16T12:10:39.239Z,11.15
2022-11-16T12:13:34.414Z,16.77
2022-11-16T12:16:39.376Z,20.40
2022-11-16T12:19:28.460Z,25.27
2022-11-16T12:22:26.550Z,29.23
2022-11-16T12:28:25.905Z,23.67
2022-11-16T12:31:31.022Z,17.83
2022-11-16T12:34:27.653Z,18.33
2022-11-16T12:37:21.044Z,20.80
2022-11-16T12:40:12.882Z,30.05
2022-11-16T12:42:59.432Z,18.35
2022-11-16T12:45:51.911Z,27.63
2022-11-16T12:51:31.602Z,18.58
2022-11-16T12:54:38.651Z,19.92
2022-11-16T12:57:46.737Z,13.77
2022-11-16T13:00:39.446Z,9.80
2022-11-16T13:03:40.277Z,13.57
2022-11-16T13:06:51.784Z,12.40
2022-11-16T13:09:43.227Z,19.95
2022-11-16T13:12:33.445Z,37.30
2022-11-16T13:15:32.804Z,24.55
2022-11-16T13:18:27.611Z,22.42
2022-11-16T13:22:07.477Z,20.65
2022-11-16T13:28:57.273Z,39.22
2022-11-16T13:31:58.599Z,30.40
2022-11-16T13:35:15.982Z,31.08
2022-11-16T13:38:04.240Z,12.57
2022-11-16T13:40:52.981Z,35.60
2022-11-16T14:11:33.678Z,22.15
2022-11-16T14:19:38.810Z,34.40
2022-11-16T14:22:42.212Z,29.23
2022-11-16T14:25:39.638Z,19.02
2022-11-16T14:28:44.869Z,20.00
2022-11-16T14:32:00.935Z,23.05
2022-11-16T14:36:25.108Z,38.63
2022-11-16T14:39:36.569Z,30.40
2022-11-16T14:43:15.503Z,21.58
2022-11-16T14:46:16.047Z,14.82
2022-11-16T14:49:03.083Z,14.32
2022-11-16T14:51:51.737Z,14.68
2022-11-16T14:54:55.941Z,14.13
2022-11-16T14:57:42.729Z,15.02
2022-11-16T15:00:30.470Z,14.45
2022-11-16T15:03:17.157Z,14.30
2022-11-16T15:06:04.325Z,16.98
2022-11-16T15:09:29.628Z,22.55
2022-11-16T15:12:36.443Z,24.70
2022-11-16T15:15:23.952Z,26.75
2022-11-16T15:18:13.028Z,19.77
2022-11-16T15:20:59.220Z,27.15
2022-11-16T15:24:02.131Z,24.17
2022-11-16T15:26:55.456Z,32.88
2022-11-16T15:29:41.712Z,19.50
2022-11-16T15:32:28.159Z,22.27
2022-11-16T15:35:21.642Z,24.88
2022-11-16T15:38:16.819Z,44.38
2022-11-16T15:41:03.831Z,31.27
2022-11-16T15:44:13.485Z,29.50
2022-11-16T15:47:00.804Z,26.55
2022-11-16T15:49:49.724Z,27.20
2022-11-16T15:52:43.647Z,21.42
2022-11-16T15:55:33.012Z,19.90
2022-11-16T15:58:25.810Z,15.43
2022-11-16T16:01:13.222Z,25.08
2022-11-16T16:04:06.354Z,20.10
2022-11-16T16:06:59.405Z,18.40
2022-11-16T16:09:45.825Z,18.05
2022-11-16T16:12:31.720Z,18.70
2022-11-16T16:15:44.220Z,17.90
2022-11-16T16:18:42.327Z,6.07
2022-11-16T16:21:39.726Z,17.65
2022-11-16T16:24:36.561Z,22.70
2022-11-16T16:27:23.916Z,18.55
2022-11-16T16:30:14.307Z,17.38
2022-11-16T16:33:00.633Z,16.02
2022-11-16T16:35:50.193Z,15.52
2022-11-16T16:38:36.280Z,13.90
2022-11-16T16:41:24.480Z,14.55
2022-11-16T16:44:14.748Z,12.45
2022-11-16T16:47:01.466Z,13.45
2022-11-16T16:49:48.360Z,18.65
2022-11-16T16:52:34.186Z,12.98
2022-11-16T16:55:20.445Z,11.18
2022-11-16T16:58:06.728Z,11.13
2022-11-16T17:01:00.887Z,13.82
2022-11-16T17:03:48.129Z,13.00
2022-11-16T17:06:35.072Z,20.30
2022-11-16T17:09:21.359Z,14.13
2022-11-16T17:12:07.549Z,19.83
2022-11-16T17:14:53.656Z,18.40
2022-11-16T17:17:41.484Z,12.35
2022-11-16T17:20:37.569Z,11.23
2022-11-16T17:23:24.599Z,11.20
2022-11-16T17:26:10.969Z,16.80
2022-11-16T17:28:57.218Z,11.30
2022-11-16T17:31:44.253Z,13.82
2022-11-16T17:34:38.188Z,14.18
2022-11-16T17:37:24.841Z,4.97
2022-11-16T17:40:17.727Z,15.40
2022-11-16T17:43:04.568Z,14.52
2022-11-16T17:45:50.761Z,13.48
2022-11-16T17:48:37.543Z,15.82
2022-11-16T17:51:24.640Z,14.43
2022-11-16T17:54:10.676Z,12.95
2022-11-16T17:56:56.805Z,16.58
2022-11-16T17:59:42.925Z,16.90
2022-11-16T18:02:29.024Z,17.05
2022-11-16T18:05:15.188Z,19.50
2022-11-16T18:08:02.798Z,20.83
2022-11-16T18:10:50.086Z,19.42
2022-11-16T18:13:37.173Z,19.85
2022-11-16T18:16:24.539Z,18.05
2022-11-16T18:19:15.168Z,17.40
2022-11-16T18:22:01.459Z,14.65
2022-11-16T18:24:47.546Z,17.05
2022-11-16T18:27:33.666Z,14.43
2022-11-16T18:30:20.536Z,11.18
2022-11-16T18:33:07.808Z,10.05
2022-11-16T18:36:57.575Z,10.02
2022-11-16T18:41:10.038Z,4.07
2022-11-16T18:50:48.480Z,4.25
2022-11-16T18:53:34.881Z,11.05
2022-11-16T18:56:21.721Z,5.32
2022-11-16T18:59:07.603Z,9.43
2022-11-16T19:01:53.668Z,8.15
2022-11-16T19:04:42.623Z,8.82
2022-11-16T19:07:29.097Z,10.48
2022-11-16T19:10:37.383Z,12.10
2022-11-16T19:13:23.580Z,6.82
2022-11-16T19:16:10.427Z,4.60
2022-11-16T19:18:56.564Z,2.85
2022-11-16T19:21:43.297Z,7.30
2022-11-16T19:24:38.782Z,5.38
2022-11-16T19:27:25.186Z,1.85
2022-11-16T19:30:13.798Z,6.03
2022-11-16T19:33:00.707Z,5.43
2022-11-16T19:35:47.012Z,1.83
2022-11-16T19:38:33.173Z,8.32
2022-11-16T19:41:40.006Z,3.47
2022-11-16T19:44:47.847Z,5.75
2022-11-16T19:47:36.887Z,8.85
2022-11-16T19:50:25.086Z,5.22
2022-11-16T19:53:11.728Z,16.33
2022-11-16T19:55:57.967Z,8.25
2022-11-16T19:58:45.321Z,6.13
2022-11-16T20:01:32.079Z,1.73
2022-11-16T20:04:18.744Z,5.50
2022-11-16T20:07:07.491Z,4.13
2022-11-16T20:09:54.717Z,2.42
2022-11-16T20:12:41.249Z,6.68
2022-11-16T20:15:27.327Z,6.60
2022-11-16T20:18:13.555Z,8.50
2022-11-16T20:21:05.056Z,3.85
2022-11-16T20:23:54.432Z,13.68
2022-11-16T20:26:41.975Z,13.45
2022-11-16T20:29:27.795Z,3.60
2022-11-16T20:32:14.028Z,13.98
2022-11-16T20:35:00.178Z,5.80
2022-11-16T20:37:46.444Z,9.52
2022-11-16T20:40:32.806Z,2.70
2022-11-16T20:43:21.421Z,9.70
2022-11-16T20:46:09.232Z,1.92
2022-11-16T20:48:57.181Z,10.25
2022-11-16T20:51:42.980Z,4.68
2022-11-16T20:54:29.729Z,5.28
2022-11-16T20:57:15.982Z,6.80
2022-11-16T21:03:12.626Z,4.55
2022-11-16T21:05:58.887Z,11.13
2022-11-16T21:08:45.173Z,4.90
2022-11-16T21:11:51.894Z,6.18
2022-11-16T21:14:38.050Z,8.85
2022-11-16T21:17:24.107Z,7.13
2022-11-16T21:20:26.872Z,6.22
2022-11-16T21:23:14.465Z,1.73
2022-11-16T21:26:04.229Z,3.63
2022-11-16T21:28:50.723Z,7.40
2022-11-16T21:31:39.446Z,6.85
2022-11-16T21:34:27.839Z,3.05
2022-11-16T21:37:14.167Z,7.28
2022-11-16T21:40:00.107Z,8.20
2022-11-16T21:42:47.614Z,2.45
2022-11-16T21:45:35.291Z,5.57
2022-11-16T21:48:21.085Z,5.38
2022-11-16T21:51:07.466Z,7.00
2022-11-16T21:53:53.500Z,6.22
2022-11-16T21:56:39.763Z,1.67
2022-11-16T21:59:26.028Z,6.20
2022-11-16T22:02:12.248Z,2.80
2022-11-16T22:05:17.273Z,2.67
2022-11-16T22:08:05.221Z,3.78
2022-11-16T22:10:52.333Z,2.05
2022-11-16T22:13:38.981Z,6.35
2022-11-16T22:16:25.256Z,3.70
2022-11-16T22:19:11.528Z,2.58
2022-11-16T22:21:59.361Z,2.53
2022-11-16T22:24:45.583Z,4.93
2022-11-16T22:27:38.569Z,3.20
2022-11-16T22:30:38.731Z,3.95
2022-11-16T22:33:24.732Z,6.10
2022-11-16T22:36:12.866Z,7.20
2022-11-16T22:38:59.010Z,8.60
2022-11-16T22:41:45.185Z,9.15
2022-11-16T22:44:31.341Z,9.90
2022-11-16T22:47:17.579Z,2.58
2022-11-16T22:50:04.314Z,5.88
2022-11-16T22:52:50.366Z,6.43
2022-11-16T22:55:37.039Z,5.57
2022-11-16T22:58:22.992Z,5.70
2022-11-16T23:01:09.698Z,5.57
2022-11-16T23:03:55.854Z,10.65
2022-11-16T23:06:41.872Z,8.88
2022-11-16T23:09:28.299Z,5.07
2022-11-16T23:12:32.884Z,4.78
2022-11-16T23:15:48.826Z,7.55
2022-11-16T23:18:35.629Z,6.40
2022-11-16T23:21:40.821Z,5.03
2022-11-16T23:24:45.581Z,2.63
2022-11-16T23:27:43.124Z,5.47
2022-11-16T23:30:29.035Z,2.85
2022-11-16T23:33:15.309Z,6.85
2022-11-16T23:36:01.519Z,6.50
2022-11-16T23:38:47.846Z,6.78
2022-11-16T23:41:53.003Z,6.40
2022-11-16T23:44:42.600Z,5.00
2022-11-16T23:47:28.794Z,5.20
2022-11-16T23:50:18.108Z,2.60
2022-11-16T23:53:05.062Z,5.18
2022-11-16T23:55:51.656Z,2.30
2022-11-16T23:58:37.846Z,6.13
